Time;durP1;ratioP1;P1;durP2;ratioP2;P2;SDS_P1;SDS_P2;PMS_P1;PMS_P2;Temp;Humidity;BMP_temperature;BMP_pressure;BME280_temperature;BME280_humidity;BME280_pressure;Samples;Min_cycle;Max_cycle;Signal;HPM_P1;HPM_P2
2021/09/30 00:03:17;;;;;;;23.10;17.00;;;;;;;13.94;85.03;99235.34;236091;1198;22562;-75
2021/09/30 00:08:20;;;;;;;24.00;17.30;;;;;;;13.94;84.84;99239.11;236052;1197;24072;-76
2021/09/30 00:35:03;;;;;;;25.40;17.60;;;;;;;13.97;85.32;99250.30;236234;1192;25270;-75
2021/09/30 00:45:41;;;;;;;22.20;16.40;;;;;;;13.90;85.59;99255.61;236173;1197;22446;-73
2021/09/30 00:50:55;;;;;;;23.40;17.00;;;;;;;13.89;85.71;99261.67;236013;1197;25096;-75
2021/09/30 02:29:55;;;;;;;24.00;17.50;;;;;;;13.76;86.90;99308.91;235713;1197;25558;-75
2021/09/30 03:01:52;;;;;;;23.60;17.20;;;;;;;13.52;86.57;99359.54;236416;1196;22455;-73
2021/09/30 03:06:58;;;;;;;25.10;17.10;;;;;;;13.50;86.51;99370.81;236399;1196;23638;-74
2021/09/30 03:12:02;;;;;;;23.10;16.50;;;;;;;13.50;86.58;99386.31;236523;1190;22427;-75
2021/09/30 03:17:08;;;;;;;22.20;16.90;;;;;;;13.46;86.50;99398.05;236640;1194;22437;-74
2021/09/30 03:27:15;;;;;;;20.60;15.10;;;;;;;13.19;86.21;99409.55;236194;1196;22414;-75
2021/09/30 03:32:18;;;;;;;19.00;13.40;;;;;;;13.06;85.88;99406.21;236469;1196;22439;-75
2021/09/30 03:37:30;;;;;;;15.40;11.80;;;;;;;12.93;85.27;99411.48;236409;1196;24042;-75
2021/09/30 03:42:32;;;;;;;15.40;11.50;;;;;;;12.80;84.73;99410.84;236492;1193;24044;-76
2021/09/30 03:47:40;;;;;;;13.90;10.60;;;;;;;12.67;84.43;99392.73;235948;1197;24051;-75
2021/09/30 03:53:14;;;;;;;14.80;11.40;;;;;;;12.51;84.11;99391.08;235952;1195;25349;-75
2021/09/30 04:03:47;;;;;;;;;;;;;;;12.30;84.06;99427.88;236208;1190;22459;-75
2021/09/30 04:08:51;;;;;;;15.20;10.60;;;;;;;12.22;84.14;99434.03;236666;1196;24059;-75
2021/09/30 04:14:05;;;;;;;16.20;11.00;;;;;;;12.16;84.14;99444.98;236796;1193;26120;-75
2021/09/30 04:19:16;;;;;;;14.40;10.10;;;;;;;12.09;84.00;99449.83;236605;1190;25141;-75
2021/09/30 04:24:20;;;;;;;13.50;9.70;;;;;;;12.00;83.90;99461.50;236666;1189;22497;-74
2021/09/30 04:29:29;;;;;;;11.60;7.90;;;;;;;11.90;83.47;99460.05;236550;1192;22450;-76
2021/09/30 04:34:32;;;;;;;10.80;7.70;;;;;;;11.79;83.39;99458.30;236523;1192;22431;-73
2021/09/30 04:39:36;;;;;;;9.30;6.00;;;;;;;11.65;83.05;99461.29;236654;1197;22542;-75
2021/09/30 04:44:38;;;;;;;8.40;6.10;;;;;;;11.52;82.91;99466.25;236398;1196;25011;-73
2021/09/30 04:49:41;;;;;;;9.30;7.40;;;;;;;11.40;82.93;99479.84;236662;1196;23996;-76
2021/09/30 04:54:43;;;;;;;8.10;6.10;;;;;;;11.34;83.12;99497.15;236530;1197;24017;-75
2021/09/30 04:59:46;;;;;;;7.80;5.50;;;;;;;11.33;83.02;99503.64;236353;1197;24076;-77
2021/09/30 05:05:17;;;;;;;7.40;4.90;;;;;;;11.37;82.97;99512.75;236388;1197;22544;-73
2021/09/30 05:10:30;;;;;;;8.10;4.90;;;;;;;11.40;82.81;99531.55;236424;1197;25194;-73
2021/09/30 05:15:37;;;;;;;5.50;4.20;;;;;;;11.42;82.55;99547.92;236245;1190;22430;-73
2021/09/30 05:20:52;;;;;;;6.50;4.50;;;;;;;11.41;82.17;99568.48;236259;1184;25173;-74
2021/09/30 05:25:58;;;;;;;6.60;4.00;;;;;;;11.42;81.83;99565.95;236116;1190;22450;-76
2021/09/30 05:31:02;;;;;;;5.00;3.50;;;;;;;11.43;81.84;99565.02;236417;1197;24949;-75
2021/09/30 05:36:35;;;;;;;4.20;3.10;;;;;;;11.46;81.63;99574.30;236565;1184;24069;-72
2021/09/30 05:41:48;;;;;;;6.60;4.20;;;;;;;11.55;81.63;99576.09;236661;1190;22469;-74
2021/09/30 05:46:58;;;;;;;6.70;4.20;;;;;;;11.63;81.62;99579.38;236360;1193;22509;-74
2021/09/30 05:52:00;;;;;;;5.40;3.80;;;;;;;11.69;81.37;99586.77;236586;1190;23659;-72
2021/09/30 05:57:31;;;;;;;6.70;3.80;;;;;;;11.72;80.94;99598.30;236969;1197;25135;-75
2021/09/30 06:04:23;;;;;;;4.50;2.80;;;;;;;11.74;80.97;99600.84;236769;1198;22524;-76
2021/09/30 06:18:51;;;;;;;4.80;3.00;;;;;;;11.90;80.12;99616.56;236938;1197;24055;-72
2021/09/30 06:24:10;;;;;;;4.40;2.70;;;;;;;11.93;79.74;99634.02;236509;1190;25197;-71
2021/09/30 06:29:22;;;;;;;2.90;2.60;;;;;;;11.93;79.54;99641.25;236524;1193;23998;-70
2021/09/30 06:34:26;;;;;;;3.10;2.40;;;;;;;11.93;79.57;99649.85;237135;1190;24056;-70
2021/09/30 06:39:46;;;;;;;3.70;2.80;;;;;;;11.97;79.38;99646.36;236904;1190;22446;-70
2021/09/30 06:44:51;;;;;;;3.10;2.30;;;;;;;12.03;79.33;99644.36;236712;1193;24030;-71
2021/09/30 06:50:13;;;;;;;4.60;2.20;;;;;;;12.07;78.97;99642.23;236344;1194;22429;-70
2021/09/30 06:56:04;;;;;;;5.60;2.20;;;;;;;12.13;78.73;99649.40;237027;1190;24139;-72
2021/09/30 07:01:43;;;;;;;3.40;2.10;;;;;;;12.18;78.51;99652.07;236357;1190;22455;-72
2021/09/30 07:07:12;;;;;;;3.30;2.10;;;;;;;12.21;78.14;99656.33;236754;1190;24075;-71
2021/09/30 07:12:15;;;;;;;4.50;2.00;;;;;;;12.22;78.05;99653.44;236587;1197;24152;-72
2021/09/30 07:17:18;;;;;;;2.50;2.00;;;;;;;12.23;77.83;99661.91;236735;1197;24057;-73
2021/09/30 07:22:25;;;;;;;4.30;2.80;;;;;;;12.29;77.59;99667.84;236354;1197;24075;-72
2021/09/30 07:27:42;;;;;;;4.00;2.10;;;;;;;12.38;77.60;99669.71;236359;1190;22437;-72
2021/09/30 07:33:01;;;;;;;3.90;2.60;;;;;;;12.56;77.25;99686.27;236637;1194;24101;-71
2021/09/30 07:38:17;;;;;;;2.80;2.20;;;;;;;12.69;76.66;99700.27;236138;1197;24044;-73
2021/09/30 07:43:40;;;;;;;2.30;1.50;;;;;;;12.75;75.94;99705.13;236167;1197;22436;-72
2021/09/30 07:48:42;;;;;;;2.60;1.90;;;;;;;12.80;75.69;99714.81;236561;1197;24066;-72
2021/09/30 07:53:45;;;;;;;4.10;2.10;;;;;;;12.90;75.79;99717.55;236470;1189;23524;-73
2021/09/30 07:59:01;;;;;;;2.30;1.40;;;;;;;13.06;75.50;99718.60;236244;1192;22483;-75
2021/09/30 08:04:04;;;;;;;1.80;1.60;;;;;;;13.19;74.69;99723.23;236326;1190;24213;-75
2021/09/30 08:09:09;;;;;;;1.90;1.40;;;;;;;13.32;74.41;99724.20;236435;1196;22453;-75
2021/09/30 08:14:33;;;;;;;2.70;1.40;;;;;;;13.43;74.09;99736.94;236594;1190;24124;-73
2021/09/30 08:19:37;;;;;;;4.60;1.50;;;;;;;13.50;73.73;99745.38;236582;1184;22472;-74
2021/09/30 08:24:40;;;;;;;2.80;1.80;;;;;;;13.47;73.10;99755.42;236435;1190;24101;-74
2021/09/30 08:29:42;;;;;;;3.50;1.30;;;;;;;13.39;73.23;99767.77;236092;1193;22438;-73
2021/09/30 08:34:47;;;;;;;1.50;1.20;;;;;;;13.31;73.06;99774.95;236417;1196;26289;-74
2021/09/30 08:39:50;;;;;;;1.90;1.60;;;;;;;13.28;72.95;99771.77;236944;1197;22565;-74
2021/09/30 08:45:03;;;;;;;1.90;1.30;;;;;;;13.27;72.88;99776.82;236764;1190;24149;-72
2021/09/30 08:50:32;;;;;;;3.10;1.30;;;;;;;13.38;73.00;99778.69;236756;1197;22456;-73
2021/09/30 08:55:36;;;;;;;3.70;1.10;;;;;;;13.51;72.30;99778.80;237193;1190;24158;-73
2021/09/30 09:00:42;;;;;;;5.30;1.30;;;;;;;13.62;72.03;99780.97;237117;1190;22477;-74
2021/09/30 09:05:45;;;;;;;1.50;1.00;;;;;;;13.81;71.73;99775.39;237007;1197;22433;-75
2021/09/30 09:10:52;;;;;;;1.80;1.00;;;;;;;13.94;71.02;99777.02;236830;1190;22466;-73
2021/09/30 09:15:58;;;;;;;2.70;1.30;;;;;;;14.07;70.80;99768.20;236836;1196;22460;-73
2021/09/30 09:21:06;;;;;;;1.90;1.20;;;;;;;14.31;70.39;99760.77;237386;1193;22561;-74
2021/09/30 09:26:24;;;;;;;1.70;1.10;;;;;;;14.63;70.02;99762.73;237924;1197;22432;-74
2021/09/30 09:31:47;;;;;;;2.30;1.00;;;;;;;14.91;68.71;99764.66;237201;1190;22482;-73
2021/09/30 09:36:53;;;;;;;1.10;0.70;;;;;;;15.08;67.73;99770.66;237010;1190;26265;-74
2021/09/30 09:42:08;;;;;;;2.60;1.00;;;;;;;15.22;67.28;99774.66;237551;1196;23460;-74
2021/09/30 09:47:21;;;;;;;2.20;0.70;;;;;;;15.28;66.10;99774.95;237237;1190;24968;-73
2021/09/30 09:52:23;;;;;;;0.70;0.70;;;;;;;15.34;65.63;99774.54;237022;1196;26350;-75
2021/09/30 09:57:31;;;;;;;1.60;0.80;;;;;;;15.35;64.92;99777.48;236517;1190;22514;-75
2021/09/30 10:02:47;;;;;;;3.60;0.90;;;;;;;15.36;64.30;99779.45;236529;1187;24031;-74
2021/09/30 10:08:07;;;;;;;2.00;1.00;;;;;;;15.52;64.54;99787.09;236848;1190;25973;-75
2021/09/30 10:13:10;;;;;;;3.30;2.00;;;;;;;15.70;64.11;99788.22;236322;1197;24047;-74
2021/09/30 10:18:14;;;;;;;4.30;2.70;;;;;;;15.73;62.90;99785.95;236730;1190;22537;-74
2021/09/30 10:23:33;;;;;;;14.90;11.30;;;;;;;15.78;63.17;99787.45;236598;1197;22847;-74
2021/09/30 10:28:52;;;;;;;10.10;7.00;;;;;;;15.87;62.68;99787.06;236664;1197;22504;-73
2021/09/30 10:34:30;;;;;;;3.60;2.90;;;;;;;15.94;62.40;99784.29;236470;1190;22562;-70
2021/09/30 10:40:10;;;;;;;2.40;1.30;;;;;;;16.08;61.79;99774.85;236344;1190;24120;-72
2021/09/30 10:45:15;;;;;;;1.50;1.10;;;;;;;16.18;61.71;99780.83;236783;1183;24008;-73
2021/09/30 10:50:19;;;;;;;2.50;1.00;;;;;;;16.17;61.14;99779.42;236464;1190;22598;-72
2021/09/30 10:55:22;;;;;;;2.80;1.00;;;;;;;16.29;61.41;99770.05;236506;1190;22480;-70
2021/09/30 11:00:30;;;;;;;2.50;1.10;;;;;;;16.42;61.16;99767.93;236754;1189;22470;-69
2021/09/30 11:05:41;;;;;;;1.60;1.10;;;;;;;16.54;60.72;99770.66;236447;1192;23128;-72
2021/09/30 11:11:11;;;;;;;2.40;1.50;;;;;;;16.67;60.66;99765.41;237017;1197;24075;-70
2021/09/30 11:16:20;;;;;;;2.10;1.10;;;;;;;16.77;60.15;99765.70;237185;1196;22459;-73
2021/09/30 11:21:33;;;;;;;1.50;0.90;;;;;;;16.87;59.86;99758.95;236782;1198;22470;-71
2021/09/30 11:26:48;;;;;;;2.30;1.00;;;;;;;16.88;59.16;99759.90;236748;1197;24069;-72
2021/09/30 11:31:54;;;;;;;1.50;0.90;;;;;;;16.87;58.73;99766.15;236884;1197;22559;-72
2021/09/30 11:37:12;;;;;;;3.30;1.10;;;;;;;16.90;58.35;99770.13;236790;1197;24120;-71
2021/09/30 11:42:34;;;;;;;1.20;0.80;;;;;;;17.02;58.66;99766.95;237044;1189;24512;-71
2021/09/30 11:47:39;;;;;;;1.80;1.00;;;;;;;17.24;58.42;99772.40;236882;1197;22438;-70
2021/09/30 11:52:42;;;;;;;2.70;1.20;;;;;;;17.31;57.83;99768.91;236672;1193;25162;-74
2021/09/30 11:57:54;;;;;;;1.30;1.10;;;;;;;17.31;57.46;99768.51;236752;1197;22442;-72
2021/09/30 12:03:05;;;;;;;1.90;1.10;;;;;;;17.34;57.47;99769.95;236814;1183;24029;-73
2021/09/30 12:08:08;;;;;;;1.10;1.00;;;;;;;17.44;57.24;99774.67;236889;1190;22426;-74
2021/09/30 12:13:19;;;;;;;3.50;1.00;;;;;;;17.48;56.71;99776.15;236776;1192;22514;-74
2021/09/30 12:18:23;;;;;;;4.60;1.30;;;;;;;17.41;56.02;99776.68;237023;1197;25157;-73
2021/09/30 12:23:27;;;;;;;1.50;1.20;;;;;;;17.40;56.00;99779.42;236760;1197;22450;-74
2021/09/30 12:28:30;;;;;;;2.30;1.20;;;;;;;17.41;55.66;99782.95;236601;1197;24010;-74
2021/09/30 12:33:32;;;;;;;2.50;1.10;;;;;;;17.51;55.22;99778.21;236727;1190;24172;-73
2021/09/30 12:39:03;;;;;;;1.70;1.00;;;;;;;17.63;54.43;99773.59;236531;1197;24033;-74
2021/09/30 12:44:23;;;;;;;5.50;2.90;;;;;;;17.89;53.64;99771.46;236605;1190;22497;-74
2021/09/30 12:49:25;;;;;;;3.70;1.40;;;;;;;17.97;53.00;99766.53;236926;1197;24987;-74
2021/09/30 12:54:28;;;;;;;2.20;1.00;;;;;;;18.03;53.14;99762.15;236927;1193;24040;-74
2021/09/30 12:59:30;;;;;;;2.30;1.20;;;;;;;17.98;52.97;99758.36;237088;1196;24072;-76
2021/09/30 13:04:33;;;;;;;5.30;1.20;;;;;;;17.83;52.53;99752.63;236989;1197;23652;-73
2021/09/30 13:09:39;;;;;;;2.80;1.40;;;;;;;17.62;51.91;99748.56;237508;1197;22547;-72
2021/09/30 13:14:48;;;;;;;2.50;1.20;;;;;;;17.45;51.69;99747.66;238317;1197;22805;-73
2021/09/30 13:19:53;;;;;;;2.00;1.00;;;;;;;17.17;51.48;99751.49;237269;1197;22810;-74
2021/09/30 13:24:57;;;;;;;1.40;0.70;;;;;;;16.92;51.69;99753.02;237262;1177;25041;-73
2021/09/30 13:30:01;;;;;;;1.40;1.30;;;;;;;16.65;52.05;99748.46;237339;1190;22428;-75
2021/09/30 13:35:06;;;;;;;1.90;1.20;;;;;;;16.50;52.62;99748.57;236974;1189;25122;-74
2021/09/30 13:40:10;;;;;;;1.60;0.90;;;;;;;16.41;52.62;99741.63;236726;1197;24018;-75
2021/09/30 13:45:15;;;;;;;2.50;1.00;;;;;;;16.45;52.82;99746.36;236695;1197;25433;-75
2021/09/30 13:50:23;;;;;;;3.80;2.00;;;;;;;16.51;52.60;99744.29;237259;1197;22460;-75
2021/09/30 13:55:26;;;;;;;1.60;1.20;;;;;;;16.53;52.22;99735.96;237178;1197;24110;-74
2021/09/30 14:00:28;;;;;;;1.70;1.10;;;;;;;16.53;52.17;99730.27;237481;1193;24175;-72
2021/09/30 14:05:31;;;;;;;3.00;0.90;;;;;;;16.49;52.25;99729.73;238452;1197;22873;-73
2021/09/30 14:10:33;;;;;;;1.50;1.10;;;;;;;16.37;52.22;99727.42;237612;1197;25138;-73
2021/09/30 14:15:36;;;;;;;3.20;1.20;;;;;;;16.26;52.40;99721.98;238085;1197;22429;-73
2021/09/30 14:20:38;;;;;;;1.90;1.10;;;;;;;16.23;52.38;99715.30;237543;1198;24019;-74
2021/09/30 14:25:42;;;;;;;1.40;0.70;;;;;;;16.29;52.62;99715.54;237092;1193;22440;-75
2021/09/30 14:30:45;;;;;;;2.20;1.00;;;;;;;16.33;52.02;99713.41;236702;1196;24040;-74
2021/09/30 14:35:53;;;;;;;2.00;1.10;;;;;;;16.31;52.20;99713.88;236739;1192;24768;-75
2021/09/30 14:40:56;;;;;;;2.70;1.00;;;;;;;16.32;52.31;99713.70;236984;1190;24129;-72
2021/09/30 14:45:59;;;;;;;2.70;1.20;;;;;;;16.26;52.28;99714.14;236743;1183;24057;-72
2021/09/30 14:51:02;;;;;;;1.10;1.00;;;;;;;16.19;52.49;99718.19;236811;1197;22461;-72
2021/09/30 14:56:06;;;;;;;1.70;1.20;;;;;;;16.10;52.61;99715.13;236818;1197;24018;-73
2021/09/30 15:01:09;;;;;;;3.00;1.40;;;;;;;16.04;52.37;99713.30;236464;1197;22438;-74
2021/09/30 15:06:12;;;;;;;1.50;1.10;;;;;;;16.00;52.48;99721.98;236665;1193;24044;-74
2021/09/30 15:11:14;;;;;;;1.40;1.10;;;;;;;15.90;52.64;99717.91;236481;1193;25035;-74
2021/09/30 15:16:19;;;;;;;2.80;1.90;;;;;;;15.80;53.17;99723.88;236629;1198;25116;-72
2021/09/30 15:21:25;;;;;;;2.70;1.80;;;;;;;15.70;53.67;99720.91;236716;1175;24199;-73
2021/09/30 15:26:29;;;;;;;1.30;1.10;;;;;;;15.55;53.81;99724.58;236340;1197;23948;-71
2021/09/30 15:31:32;;;;;;;2.30;1.10;;;;;;;15.31;54.01;99725.11;236542;1197;22447;-72
2021/09/30 15:36:35;;;;;;;2.20;1.50;;;;;;;15.06;54.32;99729.27;236405;1197;25110;-71
2021/09/30 15:41:40;;;;;;;3.20;1.60;;;;;;;14.88;54.98;99732.61;236939;1197;24016;-74
2021/09/30 15:46:42;;;;;;;6.00;3.40;;;;;;;14.76;55.38;99731.66;236783;1190;24015;-72
2021/09/30 15:51:45;;;;;;;3.30;2.20;;;;;;;14.64;55.63;99735.48;236745;1197;24152;-74
2021/09/30 15:57:02;;;;;;;4.00;3.00;;;;;;;14.40;56.05;99739.58;236872;1197;24092;-72
2021/09/30 16:02:05;;;;;;;7.90;4.60;;;;;;;14.17;56.81;99742.66;236614;1190;22557;-75
2021/09/30 16:07:09;;;;;;;7.70;5.10;;;;;;;14.01;57.30;99740.91;237298;1197;22428;-74
2021/09/30 16:12:19;;;;;;;6.70;4.80;;;;;;;13.86;57.76;99742.59;237263;1196;22501;-74
2021/09/30 16:17:26;;;;;;;8.90;5.40;;;;;;;13.70;58.66;99743.08;237470;1190;24152;-73
2021/09/30 16:22:28;;;;;;;10.70;6.20;;;;;;;13.51;59.28;99749.52;236744;1193;24179;-72
2021/09/30 16:27:38;;;;;;;9.70;5.50;;;;;;;13.35;59.68;99759.59;236385;1190;22436;-72
2021/09/30 16:32:41;;;;;;;10.40;5.00;;;;;;;13.26;60.30;99768.16;236794;1197;22440;-73
2021/09/30 16:37:43;;;;;;;8.20;5.10;;;;;;;13.19;61.02;99768.11;236564;1197;25812;-72
2021/09/30 16:42:48;;;;;;;8.80;5.70;;;;;;;13.11;61.48;99770.59;236657;1197;24085;-72
2021/09/30 16:47:51;;;;;;;8.70;4.90;;;;;;;13.02;61.70;99774.48;236935;1183;22438;-73
2021/09/30 16:52:53;;;;;;;8.10;5.00;;;;;;;12.90;61.76;99777.95;237164;1197;24139;-73
2021/09/30 16:57:56;;;;;;;10.80;5.70;;;;;;;12.75;61.85;99780.83;236849;1196;22457;-74
2021/09/30 17:02:59;;;;;;;15.80;6.50;;;;;;;12.59;62.27;99781.95;236766;1190;24494;-74
2021/09/30 17:08:03;;;;;;;9.00;6.40;;;;;;;12.45;62.82;99786.20;236631;1197;23990;-74
2021/09/30 17:13:07;;;;;;;12.30;7.30;;;;;;;12.37;63.36;99787.11;236708;1183;24020;-74
2021/09/30 17:18:11;;;;;;;27.70;15.70;;;;;;;12.26;63.97;99790.42;236699;1197;24082;-73
2021/09/30 17:23:13;;;;;;;16.60;10.70;;;;;;;12.11;64.48;99792.78;236690;1198;24286;-72
2021/09/30 17:28:15;;;;;;;15.20;8.70;;;;;;;11.96;64.81;99791.35;236459;1197;22447;-74
2021/09/30 17:33:20;;;;;;;17.30;9.30;;;;;;;11.79;65.28;99789.21;236943;1190;24065;-73
2021/09/30 17:38:35;;;;;;;18.00;11.10;;;;;;;11.65;66.00;99794.93;236734;1197;22527;-72
2021/09/30 17:43:53;;;;;;;25.20;14.30;;;;;;;11.56;66.79;99798.05;236411;1197;24031;-74
2021/09/30 17:48:56;;;;;;;23.30;13.10;;;;;;;11.46;67.37;99795.54;236576;1197;24034;-72
2021/09/30 17:53:59;;;;;;;24.60;14.20;;;;;;;11.34;67.66;99800.73;236579;1197;25202;-72
2021/09/30 17:59:02;;;;;;;24.90;15.90;;;;;;;11.24;68.17;99801.71;236766;1183;22600;-72
2021/09/30 18:04:08;;;;;;;24.60;15.40;;;;;;;11.17;68.96;99797.62;237040;1197;24066;-74
2021/09/30 18:09:11;;;;;;;27.70;15.40;;;;;;;11.09;69.31;99801.10;238139;1197;25144;-75
2021/09/30 18:14:16;;;;;;;28.90;16.80;;;;;;;11.00;69.58;99808.02;237694;1197;22564;-74
2021/09/30 18:19:21;;;;;;;30.30;18.10;;;;;;;10.93;69.97;99810.23;236699;1198;24061;-74
2021/09/30 18:29:34;;;;;;;41.30;23.30;;;;;;;10.76;70.82;99809.61;236760;1197;24071;-75
2021/09/30 18:34:36;;;;;;;41.50;24.30;;;;;;;10.68;71.06;99822.94;236823;1197;24076;-74
2021/09/30 18:39:43;;;;;;;44.40;26.10;;;;;;;10.61;71.34;99827.58;236577;1197;24042;-73
2021/09/30 18:44:45;;;;;;;43.80;25.20;;;;;;;10.54;71.69;99827.12;236534;1197;24047;-72
2021/09/30 18:49:48;;;;;;;36.70;22.30;;;;;;;10.44;71.73;99833.88;236381;1197;24327;-73
2021/09/30 18:54:50;;;;;;;44.80;24.40;;;;;;;10.35;71.84;99834.15;236387;1192;22641;-74
2021/09/30 18:59:53;;;;;;;41.80;24.90;;;;;;;10.28;72.14;99837.46;236371;1197;25158;-75
2021/09/30 19:04:56;;;;;;;40.00;22.90;;;;;;;10.21;72.63;99840.87;236362;1197;24244;-76
2021/09/30 19:09:59;;;;;;;38.30;21.10;;;;;;;10.12;72.65;99838.34;236647;1197;24091;-73
2021/09/30 19:15:08;;;;;;;34.10;19.70;;;;;;;10.04;72.97;99839.27;236618;1197;22562;-73
2021/09/30 19:20:12;;;;;;;37.20;21.40;;;;;;;9.98;73.13;99840.30;236710;1198;25213;-74
2021/09/30 19:25:18;;;;;;;39.00;21.30;;;;;;;9.93;73.40;99840.85;236720;1191;23996;-73
2021/09/30 19:30:21;;;;;;;34.80;17.60;;;;;;;9.85;73.33;99845.63;236119;1192;24159;-75
2021/09/30 19:35:27;;;;;;;32.90;19.50;;;;;;;9.76;73.28;99846.73;236465;1197;22480;-73
2021/09/30 19:40:33;;;;;;;39.80;21.90;;;;;;;9.68;73.66;99844.58;236631;1190;25003;-76
2021/09/30 19:45:41;;;;;;;32.10;20.40;;;;;;;9.60;73.91;99849.65;236973;1192;22580;-73
2021/09/30 19:50:44;;;;;;;36.50;22.30;;;;;;;9.44;74.10;99851.40;236608;1197;22444;-74
2021/09/30 19:55:48;;;;;;;37.70;21.00;;;;;;;9.38;74.40;99850.98;236648;1190;24131;-74
2021/09/30 20:00:50;;;;;;;33.20;21.10;;;;;;;9.33;74.78;99859.06;236725;1190;22574;-74
2021/09/30 20:05:53;;;;;;;43.20;25.70;;;;;;;9.31;75.10;99853.85;236532;1196;22448;-74
2021/09/30 20:10:57;;;;;;;41.10;23.60;;;;;;;9.29;75.35;99850.04;236389;1198;24020;-74
2021/09/30 20:16:01;;;;;;;40.10;24.10;;;;;;;9.27;75.42;99851.72;236651;1197;23996;-74
2021/09/30 20:21:03;;;;;;;41.90;24.70;;;;;;;9.27;75.74;99857.61;236670;1190;24041;-75
2021/09/30 20:26:06;;;;;;;39.20;23.50;;;;;;;9.23;75.73;99857.63;236482;1197;22896;-72
2021/09/30 20:31:09;;;;;;;36.80;21.40;;;;;;;9.17;75.73;99859.66;236569;1198;22460;-72
2021/09/30 20:36:14;;;;;;;38.10;22.40;;;;;;;9.05;75.55;99861.83;236585;1190;22664;-74
2021/09/30 20:41:16;;;;;;;44.20;25.50;;;;;;;8.98;75.94;99868.33;236304;1198;24055;-72
2021/09/30 20:46:21;;;;;;;40.70;24.30;;;;;;;8.95;76.28;99868.45;236616;1193;24013;-72
2021/09/30 20:51:27;;;;;;;43.10;25.50;;;;;;;8.91;76.20;99869.21;236517;1192;22526;-72
2021/09/30 20:56:30;;;;;;;46.20;25.60;;;;;;;8.83;75.97;99865.44;236357;1198;24112;-74
2021/09/30 21:01:32;;;;;;;60.00;33.90;;;;;;;8.79;76.26;99864.86;236146;1192;22449;-74
2021/09/30 21:06:36;;;;;;;52.20;31.00;;;;;;;8.76;76.54;99863.16;236283;1197;22562;-72
2021/09/30 21:11:49;;;;;;;55.10;29.60;;;;;;;8.72;76.55;99867.33;236704;1197;24018;-73
2021/09/30 21:17:10;;;;;;;64.00;35.70;;;;;;;8.66;76.57;99869.72;236455;1193;23193;-73
2021/09/30 21:22:12;;;;;;;71.80;38.00;;;;;;;8.62;76.67;99872.18;236379;1192;24603;-74
2021/09/30 21:27:15;;;;;;;81.50;43.50;;;;;;;8.56;76.73;99875.80;236399;1197;25170;-72
2021/09/30 21:32:18;;;;;;;70.20;37.60;;;;;;;8.49;77.12;99875.44;236194;1197;22709;-73
2021/09/30 21:37:20;;;;;;;50.60;29.30;;;;;;;8.42;76.74;99880.67;236122;1197;22444;-74
2021/09/30 21:42:23;;;;;;;34.70;21.70;;;;;;;8.31;76.80;99879.86;236500;1197;24094;-72
2021/09/30 21:47:40;;;;;;;44.00;25.80;;;;;;;8.20;76.97;99879.23;236467;1190;22427;-74
2021/09/30 21:52:51;;;;;;;37.70;23.90;;;;;;;8.15;77.38;99874.25;236568;1197;22448;-73
2021/09/30 21:57:56;;;;;;;35.50;20.60;;;;;;;8.06;77.33;99873.16;236440;1174;22445;-73
2021/09/30 22:02:58;;;;;;;49.20;28.60;;;;;;;7.97;77.45;99869.35;236441;1190;23000;-72
2021/09/30 22:08:01;;;;;;;57.80;34.30;;;;;;;7.96;77.87;99865.95;236161;1197;22380;-72
2021/09/30 22:13:04;;;;;;;73.60;41.30;;;;;;;7.93;78.14;99860.48;236285;1197;25010;-73
2021/09/30 22:18:08;;;;;;;66.60;39.00;;;;;;;7.82;78.07;99858.73;236370;1197;25168;-72
2021/09/30 22:23:11;;;;;;;59.10;35.00;;;;;;;7.70;78.06;99862.48;236321;1197;22442;-72
2021/09/30 22:28:14;;;;;;;62.60;34.70;;;;;;;7.64;78.24;99861.48;236322;1193;25162;-72
2021/09/30 22:33:18;;;;;;;64.00;36.50;;;;;;;7.65;78.83;99861.92;236475;1194;24515;-74
2021/09/30 22:38:21;;;;;;;55.70;33.70;;;;;;;7.66;79.09;99862.74;235957;1190;24088;-74
2021/09/30 22:43:23;;;;;;;62.50;36.60;;;;;;;7.59;78.76;99868.76;236103;1195;25686;-73
2021/09/30 22:48:25;;;;;;;63.90;35.10;;;;;;;7.49;78.84;99866.19;236222;1190;24503;-74
2021/09/30 22:53:28;;;;;;;62.70;35.10;;;;;;;7.44;78.85;99874.52;236398;1198;22652;-72
2021/09/30 22:58:31;;;;;;;61.60;35.50;;;;;;;7.42;79.15;99872.38;236292;1198;22564;-72
2021/09/30 23:03:40;;;;;;;60.60;36.20;;;;;;;7.40;79.17;99869.98;236306;1191;25264;-74
2021/09/30 23:08:43;;;;;;;57.70;31.50;;;;;;;7.36;79.42;99875.95;236336;1197;24442;-74
2021/09/30 23:13:46;;;;;;;57.10;30.70;;;;;;;7.35;79.34;99877.54;236244;1197;24060;-74
2021/09/30 23:18:50;;;;;;;55.20;31.30;;;;;;;7.33;79.31;99878.70;236108;1190;24037;-73
2021/09/30 23:23:52;;;;;;;57.40;34.50;;;;;;;7.18;79.03;99883.72;236551;1190;25185;-74
2021/09/30 23:28:55;;;;;;;64.00;36.10;;;;;;;7.05;79.07;99884.88;236078;1197;22482;-74
2021/09/30 23:33:57;;;;;;;62.80;34.80;;;;;;;6.90;78.89;99894.33;236421;1190;22541;-72
2021/09/30 23:39:00;;;;;;;71.60;38.80;;;;;;;6.77;78.75;99895.45;236264;1197;24054;-75
2021/09/30 23:44:03;;;;;;;73.90;42.80;;;;;;;6.71;79.36;99895.52;236148;1193;25187;-74
2021/09/30 23:49:08;;;;;;;78.90;41.80;;;;;;;6.70;79.67;99895.37;236361;1190;24073;-74
2021/09/30 23:54:11;;;;;;;78.60;43.70;;;;;;;6.70;79.91;99890.04;236383;1184;24934;-76
2021/09/30 23:59:13;;;;;;;85.10;46.50;;;;;;;6.74;79.99;99885.23;236420;1193;24041;-74
